Time;durP1;ratioP1;P1;durP2;ratioP2;P2;SDS_P1;SDS_P2;PMS_P1;PMS_P2;Temp;Humidity;BMP_temperature;BMP_pressure;BME280_temperature;BME280_humidity;BME280_pressure;Samples;Min_cycle;Max_cycle;Signal;HPM_P1;HPM_P2
2023/04/14 00:00:20;;;;;;;;;;;;;;;7.25;69.77;99736.48;216228;1252;61369;-74
2023/04/14 00:05:12;;;;;;;;;;;;;;;7.20;69.84;99741.07;216211;1253;61355;-75
2023/04/14 00:10:06;;;;;;;;;;;;;;;7.15;69.95;99749.27;215986;1251;153633;-75
2023/04/14 00:14:59;;;;;;;;;;;;;;;7.09;69.99;99753.65;216143;1253;61631;-75
2023/04/14 00:19:52;;;;;;;;;;;;;;;7.04;70.22;99753.74;216077;1251;61247;-76
2023/04/14 00:24:45;;;;;;;;;;;;;;;6.98;70.09;99752.27;216027;1255;61455;-75
2023/04/14 00:29:38;;;;;;;;;;;;;;;6.93;70.27;99747.88;216116;1252;74599;-75
2023/04/14 00:34:31;;;;;;;;;;;;;;;6.87;70.43;99749.33;216111;1253;71997;-75
2023/04/14 00:39:24;;;;;;;;;;;;;;;6.80;70.38;99749.75;215989;1252;61368;-75
2023/04/14 00:44:17;;;;;;;;;;;;;;;6.73;70.22;99746.70;216130;1253;71450;-74
2023/04/14 00:49:10;;;;;;;;;;;;;;;6.65;70.44;99739.52;216159;1252;61371;-75
2023/04/14 00:54:03;;;;;;;;;;;;;;;6.59;70.50;99732.33;216072;1251;61490;-74
2023/04/14 00:58:56;;;;;;;;;;;;;;;6.54;70.56;99730.02;216039;1253;61283;-75
2023/04/14 01:03:49;;;;;;;;;;;;;;;6.46;70.36;99727.46;216079;1253;61366;-75
2023/04/14 01:08:42;;;;;;;;;;;;;;;6.39;70.58;99725.95;216155;1252;65919;-75
2023/04/14 01:13:53;;;;;;;;;;;;;;;6.32;70.77;99731.16;216063;1253;61267;-75
2023/04/14 01:19:16;;;;;;;;;;;;;;;6.27;71.21;99730.90;216012;1252;74402;-75
2023/04/14 01:24:21;;;;;;;;;;;;;;;6.24;71.16;99734.11;215966;1251;72656;-74
2023/04/14 01:29:17;;;;;;;;;;;;;;;6.22;71.30;99739.92;216096;1251;61433;-75
2023/04/14 01:34:13;;;;;;;;;;;;;;;6.19;71.41;99746.40;216064;1253;66727;-75
2023/04/14 01:39:08;;;;;;;;;;;;;;;6.16;71.49;99751.86;216025;1253;62446;-74
2023/04/14 01:44:02;;;;;;;;;;;;;;;6.10;71.42;99751.21;216024;1251;73989;-75
2023/04/14 01:48:57;;;;;;;;;;;;;;;6.04;71.25;99751.98;216092;1251;70787;-74
2023/04/14 01:53:51;;;;;;;;;;;;;;;5.98;71.37;99747.73;216155;1255;61898;-75
2023/04/14 01:58:47;;;;;;;;;;;;;;;5.96;71.33;99747.16;216082;1254;65395;-75
2023/04/14 02:03:42;;;;;;;;;;;;;;;5.91;71.43;99749.77;216137;1253;61287;-75
2023/04/14 02:08:36;;;;;;;;;;;;;;;5.87;71.62;99748.50;216148;1252;76663;-75
2023/04/14 02:13:31;;;;;;;;;;;;;;;5.81;71.37;99749.40;216078;1253;71661;-75
2023/04/14 02:18:25;;;;;;;;;;;;;;;5.77;71.58;99753.95;216050;1252;61192;-75
2023/04/14 02:23:18;;;;;;;;;;;;;;;5.71;71.69;99751.79;216100;1251;66123;-75
2023/04/14 02:28:15;;;;;;;;;;;;;;;5.66;71.50;99746.87;216129;1253;61331;-74
2023/04/14 02:33:10;;;;;;;;;;;;;;;5.60;71.41;99745.35;216078;1253;72401;-75
2023/04/14 02:38:12;;;;;;;;;;;;;;;5.58;71.83;99745.48;216166;1253;72583;-75
2023/04/14 02:43:25;;;;;;;;;;;;;;;5.54;71.67;99746.61;216063;1251;61359;-75
2023/04/14 02:48:21;;;;;;;;;;;;;;;5.51;71.87;99750.16;216060;1253;65922;-75
2023/04/14 02:53:16;;;;;;;;;;;;;;;5.49;71.95;99749.07;216225;1253;61254;-75
2023/04/14 02:58:09;;;;;;;;;;;;;;;5.42;71.77;99744.98;215894;1252;73524;-75
2023/04/14 03:03:04;;;;;;;;;;;;;;;5.39;72.13;99744.91;215937;1253;70661;-75
2023/04/14 03:08:00;;;;;;;;;;;;;;;5.39;72.42;99747.83;216137;1255;61350;-75
2023/04/14 03:12:54;;;;;;;;;;;;;;;5.39;72.68;99754.87;216113;1253;65889;-75
2023/04/14 03:17:52;;;;;;;;;;;;;;;5.35;72.46;99755.31;216127;1251;61255;-74
2023/04/14 03:22:47;;;;;;;;;;;;;;;5.37;73.25;99758.45;216110;1251;76797;-75
2023/04/14 03:27:41;;;;;;;;;;;;;;;5.47;74.23;99758.48;216230;1251;71342;-75
2023/04/14 03:32:40;;;;;;;;;;;;;;;5.70;75.49;99755.52;215921;1251;61228;-75
2023/04/14 03:37:37;;;;;;;;;;;;;;;5.97;76.00;99756.13;215868;1255;66528;-75
2023/04/14 03:42:31;;;;;;;;;;;;;;;6.21;76.38;99757.45;216040;1253;61376;-75
2023/04/14 03:47:29;;;;;;;;;;;;;;;6.39;76.53;99764.53;216117;1252;74932;-75
2023/04/14 03:52:25;;;;;;;;;;;;;;;6.54;76.72;99762.55;215981;1253;71455;-75
2023/04/14 03:57:22;;;;;;;;;;;;;;;6.65;76.79;99769.63;216016;1253;61263;-75
2023/04/14 04:02:16;;;;;;;;;;;;;;;6.75;76.91;99765.31;216041;1251;67119;-75
2023/04/14 04:07:12;;;;;;;;;;;;;;;6.84;77.19;99773.40;216232;1253;61251;-75
2023/04/14 04:12:06;;;;;;;;;;;;;;;6.93;77.23;99771.99;216171;1253;74331;-74
2023/04/14 04:17:01;;;;;;;;;;;;;;;7.02;77.48;99773.69;216188;1253;70477;-75
2023/04/14 04:21:57;;;;;;;;;;;;;;;7.09;77.67;99772.24;216105;1255;61269;-75
2023/04/14 04:26:51;;;;;;;;;;;;;;;7.16;77.69;99774.45;216132;1254;66384;-75
2023/04/14 04:31:45;;;;;;;;;;;;;;;7.23;77.80;99776.27;215926;1255;61249;-75
2023/04/14 04:36:38;;;;;;;;;;;;;;;7.31;78.12;99776.89;215903;1255;74771;-75
2023/04/14 04:41:31;;;;;;;;;;;;;;;7.39;78.28;99786.00;216069;1251;72776;-75
2023/04/14 04:46:55;;;;;;;;;;;;;;;7.48;78.30;99790.95;216112;1251;64168;-75
2023/04/14 04:51:52;;;;;;;;;;;;;;;7.57;78.29;99798.34;216048;1251;67711;-75
2023/04/14 04:56:45;;;;;;;;;;;;;;;7.69;78.27;99802.29;215949;1256;61836;-75
2023/04/14 05:01:38;;;;;;;;;;;;;;;7.81;78.29;99801.41;215953;1253;61424;-75
2023/04/14 05:06:34;;;;;;;;;;;;;;;7.94;78.23;99791.08;216022;1251;61245;-75
2023/04/14 05:11:27;;;;;;;;;;;;;;;8.09;78.13;99787.97;216226;1256;61298;-74
2023/04/14 05:16:19;;;;;;;;;;;;;;;8.24;77.99;99790.91;216227;1253;61343;-76
2023/04/14 05:21:13;;;;;;;;;;;;;;;8.41;77.87;99789.39;216253;1255;61322;-74
2023/04/14 05:26:06;;;;;;;;;;;;;;;8.58;77.60;99787.70;216142;1253;73442;-75
2023/04/14 05:31:06;;;;;;;;;;;;;;;8.81;77.34;99792.41;216157;1255;73283;-75
2023/04/14 05:35:58;;;;;;;;;;;;;;;9.02;76.92;99793.80;216178;1255;61294;-75
2023/04/14 05:40:51;;;;;;;;;;;;;;;9.19;76.69;99800.34;216315;1251;61319;-75
2023/04/14 05:45:45;;;;;;;;;;;;;;;9.42;76.56;99796.17;216263;1255;61230;-75
2023/04/14 05:50:38;;;;;;;;;;;;;;;9.72;76.28;99790.84;216217;1254;75412;-75
2023/04/14 05:55:31;;;;;;;;;;;;;;;9.87;75.72;99791.77;216158;1251;61241;-74
2023/04/14 06:00:24;;;;;;;;;;;;;;;9.98;75.43;99792.70;216217;1251;62174;-75
2023/04/14 06:05:16;;;;;;;;;;;;;;;10.16;75.16;99796.58;216039;1255;61279;-75
2023/04/14 06:10:10;;;;;;;;;;;;;;;10.37;74.59;99799.11;216168;1254;61288;-75
2023/04/14 06:15:02;;;;;;;;;;;;;;;10.61;74.26;99806.29;216264;1255;61292;-75
2023/04/14 06:19:56;;;;;;;;;;;;;;;10.86;73.85;99809.80;216219;1251;61340;-75
2023/04/14 06:24:48;;;;;;;;;;;;;;;11.06;73.59;99812.77;216282;1251;61242;-75
2023/04/14 06:29:41;;;;;;;;;;;;;;;11.32;72.95;99806.86;216238;1251;61236;-75
2023/04/14 06:34:34;;;;;;;;;;;;;;;11.61;72.58;99806.30;216307;1257;61286;-76
2023/04/14 06:39:27;;;;;;;;;;;;;;;11.89;72.11;99804.70;216282;1256;61954;-75
2023/04/14 06:44:20;;;;;;;;;;;;;;;13.02;70.31;99804.57;216293;1251;61253;-75
2023/04/14 06:49:12;;;;;;;;;;;;;;;13.45;69.20;99804.29;216163;1251;61214;-75
2023/04/14 06:54:05;;;;;;;;;;;;;;;12.86;69.39;99808.91;216247;1251;61348;-76
2023/04/14 06:58:58;;;;;;;;;;;;;;;12.47;69.90;99797.33;216212;1251;61238;-75
2023/04/14 07:03:51;;;;;;;;;;;;;;;12.27;69.98;99794.67;216177;1253;61310;-74
2023/04/14 07:08:45;;;;;;;;;;;;;;;12.48;69.90;99792.81;216263;1256;61381;-73
2023/04/14 07:13:38;;;;;;;;;;;;;;;12.85;69.38;99796.75;216167;1251;75364;-74
2023/04/14 07:18:31;;;;;;;;;;;;;;;14.86;66.45;99785.34;216227;1251;72593;-74
2023/04/14 07:23:24;;;;;;;;;;;;;;;18.90;60.53;99772.16;216301;1255;61197;-75
2023/04/14 07:28:17;;;;;;;;;;;;;;;22.06;56.04;99771.25;216553;1254;61186;-74
2023/04/14 07:33:10;;;;;;;;;;;;;;;23.03;54.32;99775.05;216198;1251;61279;-76
2023/04/14 07:38:02;;;;;;;;;;;;;;;24.49;51.44;99773.45;216374;1251;61381;-76
2023/04/14 07:42:56;;;;;;;;;;;;;;;25.40;49.17;99779.80;216397;1255;61358;-76
2023/04/14 07:47:50;;;;;;;;;;;;;;;25.32;48.25;99778.16;216459;1255;61212;-74
2023/04/14 07:52:43;;;;;;;;;;;;;;;24.62;47.29;99781.44;216694;1251;65828;-74
2023/04/14 07:57:36;;;;;;;;;;;;;;;25.94;45.09;99785.77;216422;1254;61327;-74
2023/04/14 08:02:29;;;;;;;;;;;;;;;25.50;43.99;99787.06;216273;1251;61356;-76
2023/04/14 08:07:22;;;;;;;;;;;;;;;24.65;44.33;99794.23;216283;1251;61263;-76
2023/04/14 08:12:15;;;;;;;;;;;;;;;23.75;44.76;99800.00;216249;1251;61260;-76
2023/04/14 08:17:07;;;;;;;;;;;;;;;22.48;45.78;99801.70;216343;1255;61987;-76
2023/04/14 08:22:00;;;;;;;;;;;;;;;22.26;46.27;99801.10;216490;1251;61339;-75
2023/04/14 08:26:53;;;;;;;;;;;;;;;22.79;44.89;99797.24;216174;1251;61430;-76
2023/04/14 08:31:45;;;;;;;;;;;;;;;21.97;45.43;99794.44;216259;1251;61542;-76
2023/04/14 08:36:38;;;;;;;;;;;;;;;21.58;46.17;99790.02;216087;1251;61277;-75
2023/04/14 08:41:33;;;;;;;;;;;;;;;21.35;47.00;99795.74;216261;1251;61360;-75
2023/04/14 08:46:27;;;;;;;;;;;;;;;21.20;46.66;99800.73;216484;1255;61302;-75
2023/04/14 08:51:26;;;;;;;;;;;;;;;21.64;45.81;99790.28;216217;1256;74549;-75
2023/04/14 08:56:21;;;;;;;;;;;;;;;22.28;45.69;99786.21;216096;1251;71806;-76
2023/04/14 09:01:15;;;;;;;;;;;;;;;22.31;45.59;99781.27;216219;1251;62028;-77
2023/04/14 09:06:11;;;;;;;;;;;;;;;21.91;45.79;99778.00;216314;1251;66728;-75
2023/04/14 09:11:04;;;;;;;;;;;;;;;21.49;45.64;99778.38;216386;1255;61250;-75
2023/04/14 09:15:58;;;;;;;;;;;;;;;21.35;45.25;99777.38;216246;1251;61235;-75
2023/04/14 09:20:52;;;;;;;;;;;;;;;21.18;45.44;99773.68;216304;1251;73578;-75
2023/04/14 09:26:08;;;;;;;;;;;;;;;20.82;46.49;99777.29;216340;1254;61293;-75
2023/04/14 09:31:01;;;;;;;;;;;;;;;21.93;45.66;99773.63;216276;1251;68239;-76
2023/04/14 09:35:54;;;;;;;;;;;;;;;22.37;44.83;99773.76;216296;1251;61367;-74
2023/04/14 09:40:47;;;;;;;;;;;;;;;20.81;46.11;99776.04;216301;1251;61384;-75
2023/04/14 09:45:44;;;;;;;;;;;;;;;19.81;47.38;99774.58;216179;1254;61332;-74
2023/04/14 09:50:56;;;;;;;;;;;;;;;19.30;48.09;99778.27;216357;1253;61288;-75
2023/04/14 09:55:51;;;;;;;;;;;;;;;21.20;45.50;99772.39;216260;1255;67084;-75
2023/04/14 10:00:45;;;;;;;;;;;;;;;23.82;42.90;99762.04;216202;1251;61356;-75
2023/04/14 10:05:38;;;;;;;;;;;;;;;24.45;41.95;99758.65;216134;1254;75505;-76
2023/04/14 10:10:31;;;;;;;;;;;;;;;23.39;42.64;99766.83;216051;1251;61250;-76
2023/04/14 10:15:24;;;;;;;;;;;;;;;22.54;42.63;99759.88;216108;1255;61640;-74
2023/04/14 10:20:17;;;;;;;;;;;;;;;24.41;40.41;99757.64;216272;1251;61282;-75
2023/04/14 10:25:10;;;;;;;;;;;;;;;25.01;39.84;99753.67;216182;1255;61362;-75
2023/04/14 10:30:05;;;;;;;;;;;;;;;25.64;38.86;99749.79;216177;1255;61250;-76
2023/04/14 10:35:05;;;;;;;;;;;;;;;27.33;37.73;99750.14;216116;1251;73517;-76
2023/04/14 10:39:59;;;;;;;;;;;;;;;28.44;36.41;99753.33;216216;1255;61242;-76
2023/04/14 10:45:05;;;;;;;;;;;;;;;27.28;37.03;99753.23;216256;1255;66936;-76
2023/04/14 10:50:03;;;;;;;;;;;;;;;27.60;36.55;99749.11;216113;1254;61358;-76
2023/04/14 10:55:06;;;;;;;;;;;;;;;28.51;35.23;99748.59;216099;1251;75875;-76
2023/04/14 11:00:00;;;;;;;;;;;;;;;28.26;35.39;99749.64;216140;1255;71355;-76
2023/04/14 11:04:58;;;;;;;;;;;;;;;25.77;36.82;99749.57;216154;1251;61347;-75
2023/04/14 11:09:51;;;;;;;;;;;;;;;24.53;37.91;99741.36;216164;1251;66473;-76
2023/04/14 11:14:47;;;;;;;;;;;;;;;24.04;38.64;99736.24;216236;1251;61240;-76
2023/04/14 11:19:40;;;;;;;;;;;;;;;24.68;37.85;99720.66;216149;1251;73178;-77
2023/04/14 11:24:34;;;;;;;;;;;;;;;25.91;37.59;99716.92;216163;1253;61189;-75
2023/04/14 11:29:27;;;;;;;;;;;;;;;25.91;36.85;99720.48;216142;1255;61279;-75
2023/04/14 11:34:24;;;;;;;;;;;;;;;24.74;37.37;99724.42;216074;1251;61327;-75
2023/04/14 11:39:17;;;;;;;;;;;;;;;24.90;37.79;99718.00;216229;1251;61234;-75
2023/04/14 11:44:15;;;;;;;;;;;;;;;24.17;37.80;99714.98;216048;1253;61561;-74
2023/04/14 11:49:08;;;;;;;;;;;;;;;22.57;39.44;99718.25;216029;1251;72723;-75
2023/04/14 11:54:01;;;;;;;;;;;;;;;22.19;40.74;99713.04;216028;1251;61388;-74
2023/04/14 11:59:04;;;;;;;;;;;;;;;21.79;40.91;99710.25;215986;1253;61333;-75
2023/04/14 12:03:57;;;;;;;;;;;;;;;21.31;41.34;99707.94;216193;1251;61316;-75
2023/04/14 12:08:55;;;;;;;;;;;;;;;20.13;41.88;99713.06;216002;1253;151253;-74
2023/04/14 12:13:49;;;;;;;;;;;;;;;19.64;43.80;99708.20;216094;1253;71557;-74
2023/04/14 12:18:43;;;;;;;;;;;;;;;20.33;43.65;99701.21;216148;1255;61238;-76
2023/04/14 12:23:37;;;;;;;;;;;;;;;20.60;42.77;99694.88;216162;1253;67142;-76
2023/04/14 12:28:30;;;;;;;;;;;;;;;20.09;43.02;99689.48;216219;1252;61230;-75
2023/04/14 12:33:23;;;;;;;;;;;;;;;20.23;43.27;99682.60;216237;1251;61122;-76
2023/04/14 12:38:16;;;;;;;;;;;;;;;20.61;43.19;99667.17;216162;1251;61283;-75
2023/04/14 12:43:09;;;;;;;;;;;;;;;21.14;43.04;99654.92;216128;1255;61334;-75
2023/04/14 12:48:02;;;;;;;;;;;;;;;20.86;42.22;99661.06;216161;1255;66308;-76
2023/04/14 12:52:55;;;;;;;;;;;;;;;21.13;42.62;99655.12;216103;1251;61241;-76
2023/04/14 12:57:50;;;;;;;;;;;;;;;21.36;42.45;99651.85;216246;1251;72560;-77
2023/04/14 13:02:43;;;;;;;;;;;;;;;20.66;42.54;99653.96;216177;1251;71809;-76
2023/04/14 13:07:38;;;;;;;;;;;;;;;19.77;43.69;99656.19;216244;1251;65137;-76
2023/04/14 13:12:31;;;;;;;;;;;;;;;19.63;44.27;99656.36;216219;1251;61281;-76
2023/04/14 13:17:24;;;;;;;;;;;;;;;18.95;45.02;99648.59;216370;1251;61347;-75
2023/04/14 13:22:17;;;;;;;;;;;;;;;18.91;45.14;99649.95;216160;1253;61259;-76
2023/04/14 13:27:10;;;;;;;;;;;;;;;18.71;45.42;99658.70;216234;1255;61268;-75
2023/04/14 13:32:03;;;;;;;;;;;;;;;18.68;45.77;99655.42;216147;1251;61576;-75
2023/04/14 13:36:56;;;;;;;;;;;;;;;19.11;45.66;99646.10;216249;1251;61365;-74
2023/04/14 13:41:48;;;;;;;;;;;;;;;19.55;44.64;99649.80;216142;1253;61319;-75
2023/04/14 13:46:43;;;;;;;;;;;;;;;19.33;44.88;99648.15;216138;1251;61144;-76
2023/04/14 13:51:36;;;;;;;;;;;;;;;19.37;44.72;99652.04;216161;1255;73067;-75
2023/04/14 13:56:28;;;;;;;;;;;;;;;19.39;44.30;99649.86;216167;1251;61372;-75
2023/04/14 14:01:21;;;;;;;;;;;;;;;19.79;44.56;99646.45;216019;1251;61260;-75
2023/04/14 14:06:14;;;;;;;;;;;;;;;20.40;43.74;99642.16;216127;1251;61286;-75
2023/04/14 14:11:08;;;;;;;;;;;;;;;20.01;42.95;99643.48;216026;1250;61289;-75
2023/04/14 14:16:01;;;;;;;;;;;;;;;18.92;43.86;99644.29;216081;1253;61347;-75
2023/04/14 14:20:54;;;;;;;;;;;;;;;18.64;44.59;99642.94;216067;1250;61553;-75
2023/04/14 14:25:46;;;;;;;;;;;;;;;18.80;44.52;99649.27;216100;1253;61898;-76
2023/04/14 14:30:39;;;;;;;;;;;;;;;19.00;44.34;99636.84;216259;1253;61290;-76
2023/04/14 14:35:32;;;;;;;;;;;;;;;19.27;43.61;99637.82;216279;1252;61307;-75
2023/04/14 14:40:25;;;;;;;;;;;;;;;19.18;43.30;99639.22;216218;1251;61380;-76
2023/04/14 14:45:18;;;;;;;;;;;;;;;18.62;43.86;99645.29;216258;1253;61357;-75
2023/04/14 14:50:22;;;;;;;;;;;;;;;18.19;44.16;99638.62;216231;1255;67105;-76
2023/04/14 14:55:15;;;;;;;;;;;;;;;18.11;44.72;99644.31;216224;1254;61222;-76
2023/04/14 15:00:09;;;;;;;;;;;;;;;18.14;44.55;99641.92;216140;1254;61222;-74
2023/04/14 15:05:02;;;;;;;;;;;;;;;18.30;44.23;99641.08;216211;1253;71840;-74
2023/04/14 15:09:55;;;;;;;;;;;;;;;18.06;44.27;99643.41;216144;1251;61295;-73
2023/04/14 15:14:48;;;;;;;;;;;;;;;18.13;44.68;99648.10;216039;1251;61252;-73
2023/04/14 15:19:41;;;;;;;;;;;;;;;17.74;45.61;99649.06;216038;1251;61314;-73
2023/04/14 15:24:34;;;;;;;;;;;;;;;17.48;46.37;99644.02;216096;1251;61205;-74
2023/04/14 15:29:27;;;;;;;;;;;;;;;17.33;46.72;99644.98;215930;1251;61359;-73
2023/04/14 15:34:20;;;;;;;;;;;;;;;17.15;47.26;99644.40;215923;1253;61576;-73
2023/04/14 15:39:13;;;;;;;;;;;;;;;17.00;47.77;99641.68;216023;1251;61931;-74
2023/04/14 15:44:06;;;;;;;;;;;;;;;16.93;47.99;99644.67;215964;1251;61270;-73
2023/04/14 15:48:59;;;;;;;;;;;;;;;16.88;48.33;99653.89;216009;1255;61359;-73
2023/04/14 15:53:51;;;;;;;;;;;;;;;16.71;48.53;99658.48;215950;1251;62290;-73
2023/04/14 15:58:44;;;;;;;;;;;;;;;16.42;48.92;99665.83;215997;1251;61246;-74
2023/04/14 16:03:37;;;;;;;;;;;;;;;16.20;49.13;99667.39;216161;1251;61314;-74
2023/04/14 16:08:30;;;;;;;;;;;;;;;16.04;49.56;99669.66;215976;1255;61404;-73
2023/04/14 16:13:26;;;;;;;;;;;;;;;15.90;49.77;99663.34;215965;1252;61947;-73
2023/04/14 16:18:19;;;;;;;;;;;;;;;15.72;50.36;99666.33;216035;1255;72915;-74
2023/04/14 16:23:12;;;;;;;;;;;;;;;15.46;50.79;99664.20;216079;1253;61373;-74
2023/04/14 16:28:04;;;;;;;;;;;;;;;15.32;51.25;99667.44;215998;1253;61264;-73
2023/04/14 16:32:57;;;;;;;;;;;;;;;15.13;51.61;99668.86;216127;1251;61263;-74
2023/04/14 16:37:51;;;;;;;;;;;;;;;14.90;52.13;99675.54;216094;1251;61358;-73
2023/04/14 16:42:45;;;;;;;;;;;;;;;14.73;52.43;99680.72;216180;1251;61236;-74
2023/04/14 16:47:38;;;;;;;;;;;;;;;14.56;52.74;99685.67;216057;1253;61286;-74
2023/04/14 16:52:33;;;;;;;;;;;;;;;14.36;53.07;99690.32;216125;1251;61810;-74
2023/04/14 16:57:27;;;;;;;;;;;;;;;14.16;53.44;99697.24;216206;1251;61367;-74
2023/04/14 17:02:19;;;;;;;;;;;;;;;13.98;53.86;99696.78;216155;1253;61232;-74
2023/04/14 17:07:13;;;;;;;;;;;;;;;13.81;54.14;99698.04;216127;1251;73665;-73
2023/04/14 17:12:05;;;;;;;;;;;;;;;13.67;54.56;99699.77;216159;1251;61255;-73
2023/04/14 17:16:59;;;;;;;;;;;;;;;13.51;54.98;99702.40;215986;1252;61337;-74
2023/04/14 17:21:52;;;;;;;;;;;;;;;13.35;55.38;99709.36;216011;1251;61335;-74
2023/04/14 17:26:45;;;;;;;;;;;;;;;13.22;55.61;99712.25;216196;1251;61244;-74
2023/04/14 17:31:38;;;;;;;;;;;;;;;13.10;55.96;99714.45;216172;1251;61356;-74
2023/04/14 17:36:31;;;;;;;;;;;;;;;12.99;56.12;99714.90;216223;1251;62035;-75
2023/04/14 17:41:24;;;;;;;;;;;;;;;12.87;56.45;99721.77;216006;1253;67678;-74
2023/04/14 17:46:21;;;;;;;;;;;;;;;12.76;56.72;99730.05;216112;1251;61254;-74
2023/04/14 17:51:14;;;;;;;;;;;;;;;12.68;56.88;99736.02;216083;1251;76792;-74
2023/04/14 17:56:07;;;;;;;;;;;;;;;12.58;57.07;99736.27;216111;1251;72762;-74
2023/04/14 18:01:00;;;;;;;;;;;;;;;12.50;57.30;99737.00;216179;1253;61327;-73
2023/04/14 18:05:53;;;;;;;;;;;;;;;12.42;57.59;99741.59;216169;1253;61257;-73
2023/04/14 18:10:46;;;;;;;;;;;;;;;12.34;57.70;99743.20;216132;1251;61245;-74
2023/04/14 18:15:40;;;;;;;;;;;;;;;12.25;57.94;99743.24;216178;1251;61238;-73
2023/04/14 18:20:34;;;;;;;;;;;;;;;12.18;58.05;99749.35;216245;1253;71494;-73
2023/04/14 18:25:27;;;;;;;;;;;;;;;12.12;58.18;99761.72;216197;1251;65239;-73
2023/04/14 18:30:41;;;;;;;;;;;;;;;12.06;58.34;99767.64;216285;1251;67332;-73
2023/04/14 18:35:34;;;;;;;;;;;;;;;12.01;58.46;99772.02;216113;1251;61365;-73
2023/04/14 18:40:26;;;;;;;;;;;;;;;11.97;58.53;99770.98;216229;1251;61284;-74
2023/04/14 18:45:19;;;;;;;;;;;;;;;11.93;58.65;99770.14;216138;1251;61273;-74
2023/04/14 18:50:12;;;;;;;;;;;;;;;11.89;58.75;99768.55;216225;1251;61283;-75
2023/04/14 18:55:06;;;;;;;;;;;;;;;11.84;58.89;99774.48;216080;1255;66301;-74
2023/04/14 18:59:59;;;;;;;;;;;;;;;11.81;59.04;99781.26;216207;1251;65329;-73
2023/04/14 19:04:52;;;;;;;;;;;;;;;11.79;59.01;99785.42;216210;1251;61266;-73
2023/04/14 19:09:44;;;;;;;;;;;;;;;11.76;59.17;99795.34;216195;1251;61337;-73
2023/04/14 19:14:38;;;;;;;;;;;;;;;11.77;59.24;99801.23;216121;1253;61352;-73
2023/04/14 19:19:33;;;;;;;;;;;;;;;11.76;59.39;99796.73;216151;1255;66921;-74
2023/04/14 19:24:26;;;;;;;;;;;;;;;11.71;59.42;99789.44;216213;1253;61261;-74
2023/04/14 19:29:19;;;;;;;;;;;;;;;11.66;59.61;99789.10;216175;1254;74750;-72
2023/04/14 19:34:12;;;;;;;;;;;;;;;11.58;59.74;99786.69;216135;1253;61278;-73
2023/04/14 19:39:05;;;;;;;;;;;;;;;11.51;59.87;99783.76;216170;1254;61455;-72
2023/04/14 19:43:58;;;;;;;;;;;;;;;11.46;60.11;99776.48;216124;1253;61266;-73
2023/04/14 19:48:51;;;;;;;;;;;;;;;11.40;60.16;99775.27;216103;1251;61275;-74
2023/04/14 19:53:46;;;;;;;;;;;;;;;11.38;60.34;99778.91;216088;1253;61397;-73
2023/04/14 19:58:38;;;;;;;;;;;;;;;11.38;60.47;99783.24;216119;1253;74304;-73
2023/04/14 20:03:31;;;;;;;;;;;;;;;11.36;60.48;99778.92;216208;1255;61364;-73
2023/04/14 20:08:26;;;;;;;;;;;;;;;11.30;60.55;99784.30;216163;1253;65690;-75
2023/04/14 20:13:20;;;;;;;;;;;;;;;11.24;60.69;99782.23;216186;1251;61366;-73
2023/04/14 20:18:13;;;;;;;;;;;;;;;11.20;60.85;99784.83;216206;1251;73927;-73
2023/04/14 20:23:06;;;;;;;;;;;;;;;11.18;60.92;99786.23;216149;1251;72877;-73
2023/04/14 20:27:59;;;;;;;;;;;;;;;11.16;60.97;99780.50;216153;1251;61283;-73
2023/04/14 20:32:52;;;;;;;;;;;;;;;11.16;61.05;99783.09;216114;1253;67389;-73
2023/04/14 20:37:45;;;;;;;;;;;;;;;11.15;61.28;99778.42;216159;1251;61772;-73
2023/04/14 20:42:38;;;;;;;;;;;;;;;11.13;61.28;99778.08;216275;1252;61240;-73
2023/04/14 20:47:31;;;;;;;;;;;;;;;11.11;61.40;99773.04;216240;1253;71627;-73
2023/04/14 20:52:25;;;;;;;;;;;;;;;11.08;61.49;99770.27;216256;1253;61256;-73
2023/04/14 20:57:18;;;;;;;;;;;;;;;11.05;61.57;99774.27;216251;1252;68580;-73
2023/04/14 21:02:11;;;;;;;;;;;;;;;11.00;61.82;99774.79;216133;1251;61263;-73
2023/04/14 21:07:04;;;;;;;;;;;;;;;10.94;61.80;99769.23;216172;1255;74503;-73
2023/04/14 21:11:57;;;;;;;;;;;;;;;10.88;62.08;99768.19;216083;1253;61354;-73
2023/04/14 21:17:07;;;;;;;;;;;;;;;10.84;62.22;99758.12;216133;1251;61244;-73
2023/04/14 21:22:00;;;;;;;;;;;;;;;10.82;62.37;99755.00;216179;1252;61394;-73
2023/04/14 21:26:54;;;;;;;;;;;;;;;10.81;62.44;99751.55;216182;1253;61213;-73
2023/04/14 21:31:47;;;;;;;;;;;;;;;10.80;62.46;99751.36;216196;1251;73313;-73
2023/04/14 21:36:40;;;;;;;;;;;;;;;10.79;62.58;99757.26;216151;1250;72678;-74
2023/04/14 21:41:32;;;;;;;;;;;;;;;10.79;62.72;99769.23;216173;1253;61268;-73
2023/04/14 21:46:25;;;;;;;;;;;;;;;10.77;62.73;99765.92;216191;1251;61258;-73
2023/04/14 21:51:18;;;;;;;;;;;;;;;10.77;62.76;99766.98;216182;1252;61250;-73
2023/04/14 21:56:12;;;;;;;;;;;;;;;10.77;62.94;99767.83;216225;1251;61235;-73
2023/04/14 22:01:05;;;;;;;;;;;;;;;10.76;63.00;99774.06;216259;1253;71413;-74
2023/04/14 22:05:59;;;;;;;;;;;;;;;10.76;63.14;99765.39;216233;1253;61241;-73
2023/04/14 22:10:52;;;;;;;;;;;;;;;10.75;63.22;99761.93;216248;1252;66958;-73
2023/04/14 22:15:45;;;;;;;;;;;;;;;10.74;63.31;99762.11;216412;1251;61253;-74
2023/04/14 22:20:38;;;;;;;;;;;;;;;10.72;63.32;99755.17;216126;1253;74328;-73
2023/04/14 22:25:31;;;;;;;;;;;;;;;10.71;63.44;99751.00;216105;1255;73280;-74
2023/04/14 22:30:24;;;;;;;;;;;;;;;10.69;63.72;99755.52;216072;1253;61315;-74
2023/04/14 22:35:17;;;;;;;;;;;;;;;10.68;63.70;99755.70;216084;1255;61536;-74
2023/04/14 22:40:09;;;;;;;;;;;;;;;10.67;63.75;99751.00;216101;1253;61358;-74
2023/04/14 22:45:03;;;;;;;;;;;;;;;10.67;63.78;99753.25;216117;1253;61297;-75
2023/04/14 22:49:56;;;;;;;;;;;;;;;10.66;63.89;99754.83;216066;1253;71872;-74
2023/04/14 22:54:50;;;;;;;;;;;;;;;10.66;64.13;99759.51;216048;1255;61295;-73
2023/04/14 22:59:44;;;;;;;;;;;;;;;10.66;64.10;99755.16;216161;1256;67748;-74
2023/04/14 23:04:37;;;;;;;;;;;;;;;10.65;64.21;99753.95;216134;1253;61477;-73
2023/04/14 23:09:30;;;;;;;;;;;;;;;10.65;64.20;99758.28;216208;1253;74467;-73
2023/04/14 23:14:23;;;;;;;;;;;;;;;10.65;64.22;99753.95;216102;1255;73160;-73
2023/04/14 23:19:16;;;;;;;;;;;;;;;10.63;64.32;99750.83;216294;1253;61248;-74
2023/04/14 23:24:09;;;;;;;;;;;;;;;10.62;64.48;99750.66;216225;1251;67937;-73
2023/04/14 23:29:03;;;;;;;;;;;;;;;10.62;64.41;99752.21;216221;1251;61296;-74
2023/04/14 23:33:56;;;;;;;;;;;;;;;10.61;64.42;99755.50;216150;1253;75437;-73
2023/04/14 23:38:50;;;;;;;;;;;;;;;10.60;64.54;99757.92;216220;1253;72261;-74
2023/04/14 23:43:43;;;;;;;;;;;;;;;10.60;64.57;99758.27;215993;1255;61210;-74
2023/04/14 23:48:36;;;;;;;;;;;;;;;10.59;64.63;99755.33;216018;1255;61283;-74
2023/04/14 23:53:30;;;;;;;;;;;;;;;10.58;64.67;99756.36;215937;1256;61853;-73
2023/04/14 23:58:23;;;;;;;;;;;;;;;10.58;64.68;99756.18;216118;1251;61221;-74
